createdAt,value
2023-02-09T00:01:18.587Z,2.79
2023-02-09T00:03:46.263Z,2.91
2023-02-09T00:06:14.439Z,3.99
2023-02-09T00:08:41.721Z,4.14
2023-02-09T00:11:10.524Z,3.24
2023-02-09T00:13:37.855Z,3.45
2023-02-09T00:16:05.253Z,2.39
2023-02-09T00:18:33.336Z,1.77
2023-02-09T00:21:00.617Z,0.41
2023-02-09T00:23:29.063Z,0.19
2023-02-09T00:26:00.056Z,-0.32
2023-02-09T00:28:27.602Z,-2.12
2023-02-09T00:30:54.877Z,-1.49
2023-02-09T00:33:22.357Z,-1.01
2023-02-09T00:35:49.662Z,0.90
2023-02-09T00:38:16.946Z,2.19
2023-02-09T00:40:44.778Z,2.84
2023-02-09T00:43:12.240Z,2.89
2023-02-09T00:45:39.480Z,2.62
2023-02-09T00:48:06.940Z,3.18
2023-02-09T00:50:34.129Z,3.52
2023-02-09T00:53:01.305Z,3.13
2023-02-09T00:55:28.720Z,2.38
2023-02-09T00:57:55.867Z,1.10
2023-02-09T01:00:23.120Z,0.13
2023-02-09T01:02:50.536Z,1.76
2023-02-09T01:05:17.749Z,2.46
2023-02-09T01:07:44.919Z,3.02
2023-02-09T01:10:12.332Z,3.20
2023-02-09T01:12:40.955Z,2.22
2023-02-09T01:15:08.873Z,-1.01
2023-02-09T01:17:36.388Z,-0.93
2023-02-09T01:20:04.677Z,-0.48
2023-02-09T01:22:31.827Z,0.97
2023-02-09T01:24:59.277Z,2.14
2023-02-09T01:27:26.426Z,2.12
2023-02-09T01:29:53.535Z,0.47
2023-02-09T01:32:20.985Z,-0.70
2023-02-09T01:34:50.676Z,-0.17
2023-02-09T01:37:18.398Z,-0.67
2023-02-09T01:39:46.460Z,-1.20
2023-02-09T01:42:15.355Z,-1.36
2023-02-09T01:44:42.662Z,-1.28
2023-02-09T01:47:13.924Z,0.59
2023-02-09T01:49:41.243Z,1.90
2023-02-09T01:52:15.604Z,2.72
2023-02-09T01:54:43.005Z,2.29
2023-02-09T01:57:11.465Z,-0.31
2023-02-09T01:59:39.137Z,-2.02
2023-02-09T02:02:07.100Z,-1.08
2023-02-09T02:04:34.873Z,-0.87
2023-02-09T02:07:34.613Z,-0.76
2023-02-09T02:10:02.989Z,-1.37
2023-02-09T02:12:30.214Z,-2.53
2023-02-09T02:14:57.636Z,-2.80
2023-02-09T02:17:36.877Z,-3.33
2023-02-09T02:20:19.464Z,-3.11
2023-02-09T02:22:49.638Z,-3.61
2023-02-09T02:25:35.632Z,-2.47
2023-02-09T02:28:21.854Z,-2.84
2023-02-09T02:30:52.123Z,-3.02
2023-02-09T02:33:31.676Z,-2.93
2023-02-09T02:36:19.841Z,-0.54
2023-02-09T02:39:01.406Z,-0.70
2023-02-09T02:41:52.963Z,-1.52
2023-02-09T02:44:20.178Z,0.16
2023-02-09T02:46:51.447Z,-0.63
2023-02-09T02:49:21.335Z,0.11
2023-02-09T02:51:49.352Z,0.35
2023-02-09T02:54:17.693Z,0.58
2023-02-09T02:56:50.075Z,1.50
2023-02-09T02:59:18.816Z,1.59
2023-02-09T03:01:47.885Z,1.85
2023-02-09T03:04:15.180Z,-0.81
2023-02-09T03:06:43.011Z,-0.28
2023-02-09T03:09:10.188Z,-0.56
2023-02-09T03:11:41.939Z,1.09
2023-02-09T03:14:09.400Z,1.42
2023-02-09T03:16:39.527Z,1.50
2023-02-09T03:19:25.341Z,2.95
2023-02-09T03:22:01.793Z,3.30
2023-02-09T03:24:37.237Z,3.09
2023-02-09T03:27:22.140Z,2.47
2023-02-09T03:29:50.138Z,2.52
2023-02-09T03:32:17.686Z,2.29
2023-02-09T03:34:45.301Z,1.83
2023-02-09T03:37:12.560Z,0.59
2023-02-09T03:39:40.121Z,-1.11
2023-02-09T03:42:07.346Z,-1.76
2023-02-09T03:44:34.568Z,-2.33
2023-02-09T03:47:03.835Z,-3.29
2023-02-09T03:49:33.513Z,-3.29
2023-02-09T03:52:01.301Z,-3.06
2023-02-09T03:54:32.303Z,-3.13
2023-02-09T03:56:59.996Z,-1.90
2023-02-09T03:59:27.703Z,-1.53
2023-02-09T04:01:56.143Z,-1.60
2023-02-09T04:04:23.936Z,-2.74
2023-02-09T04:06:51.152Z,-2.92
2023-02-09T04:09:18.358Z,-1.56
2023-02-09T04:11:47.147Z,-0.07
2023-02-09T04:14:14.322Z,0.19
2023-02-09T04:16:43.889Z,-0.93
2023-02-09T04:19:11.492Z,-2.33
2023-02-09T04:21:38.957Z,-1.96
2023-02-09T04:24:06.450Z,-1.11
2023-02-09T04:26:34.137Z,-0.61
2023-02-09T04:29:01.281Z,-0.92
2023-02-09T04:31:28.609Z,-0.89
2023-02-09T04:33:56.099Z,-0.16
2023-02-09T04:36:23.496Z,1.30
2023-02-09T04:41:35.800Z,3.09
2023-02-09T04:44:02.969Z,3.55
2023-02-09T04:46:30.116Z,3.02
2023-02-09T04:48:57.599Z,1.12
2023-02-09T04:51:24.760Z,-1.42
2023-02-09T04:53:52.394Z,-2.33
2023-02-09T04:56:19.858Z,-3.00
2023-02-09T04:59:07.247Z,-2.51
2023-02-09T05:01:34.732Z,-2.61
2023-02-09T05:04:01.946Z,-2.40
2023-02-09T05:06:29.066Z,-1.35
2023-02-09T05:08:56.516Z,-2.15
2023-02-09T05:11:25.528Z,-2.85
2023-02-09T05:13:52.820Z,-3.74
2023-02-09T05:16:20.402Z,-4.63
2023-02-09T05:18:47.648Z,-4.65
2023-02-09T05:21:14.846Z,-4.42
2023-02-09T05:23:42.307Z,-2.20
2023-02-09T05:26:09.647Z,-0.72
2023-02-09T05:28:37.040Z,-0.25
2023-02-09T05:31:04.881Z,-0.68
2023-02-09T05:33:32.304Z,-0.22
2023-02-09T05:35:59.578Z,0.42
2023-02-09T05:38:27.137Z,-0.63
2023-02-09T05:40:54.327Z,-1.91
2023-02-09T05:43:21.487Z,-3.03
2023-02-09T05:45:49.083Z,-3.15
2023-02-09T05:48:16.257Z,-3.78
2023-02-09T05:50:43.633Z,-3.30
2023-02-09T05:53:11.239Z,-1.72
2023-02-09T05:55:38.423Z,0.06
2023-02-09T05:58:07.984Z,0.86
2023-02-09T06:00:35.477Z,0.32
2023-02-09T06:03:02.889Z,0.49
2023-02-09T06:05:30.218Z,0.35
2023-02-09T06:07:58.053Z,0.23
2023-02-09T06:10:25.489Z,0.08
2023-02-09T06:12:52.691Z,-0.97
2023-02-09T06:15:19.861Z,-1.45
2023-02-09T06:17:47.335Z,-2.03
2023-02-09T06:20:14.530Z,-3.05
2023-02-09T06:22:41.676Z,-2.75
2023-02-09T06:25:09.321Z,-2.84
2023-02-09T06:27:36.817Z,-2.57
2023-02-09T06:30:04.597Z,-1.42
2023-02-09T06:32:32.286Z,-2.55
2023-02-09T06:34:59.482Z,-1.61
2023-02-09T06:37:26.711Z,-0.97
2023-02-09T06:39:54.183Z,-1.05
2023-02-09T06:42:21.336Z,-1.04
2023-02-09T06:44:48.533Z,-0.63
2023-02-09T06:47:16.188Z,0.05
2023-02-09T06:49:43.339Z,-0.52
2023-02-09T06:52:10.647Z,0.40
2023-02-09T06:54:38.272Z,0.72
2023-02-09T06:57:05.658Z,1.19
2023-02-09T06:59:33.052Z,-0.09
2023-02-09T07:02:00.829Z,1.02
2023-02-09T07:04:28.089Z,2.12
2023-02-09T07:06:55.264Z,2.29
2023-02-09T07:09:22.690Z,2.63
2023-02-09T07:11:50.004Z,1.43
2023-02-09T07:14:17.544Z,1.32
2023-02-09T07:16:45.285Z,1.80
2023-02-09T07:19:13.020Z,1.83
2023-02-09T07:21:40.419Z,2.12
2023-02-09T07:24:08.122Z,1.13
2023-02-09T07:26:35.518Z,1.73
2023-02-09T07:29:02.917Z,1.16
2023-02-09T07:31:30.771Z,2.79
2023-02-09T07:33:58.545Z,2.32
2023-02-09T07:36:28.049Z,1.46
2023-02-09T07:38:56.396Z,1.55
2023-02-09T07:41:25.280Z,1.03
2023-02-09T07:43:53.083Z,2.74
2023-02-09T07:46:22.062Z,2.65
2023-02-09T07:48:49.800Z,3.24
2023-02-09T07:51:25.293Z,3.28
2023-02-09T07:53:53.439Z,3.60
2023-02-09T07:56:21.543Z,3.95
2023-02-09T07:58:49.200Z,3.47
2023-02-09T08:01:17.515Z,3.63
2023-02-09T08:03:47.653Z,3.99
2023-02-09T08:06:20.929Z,3.71
2023-02-09T08:08:50.499Z,4.64
2023-02-09T08:11:20.916Z,4.03
2023-02-09T08:13:50.887Z,3.46
2023-02-09T08:16:21.242Z,4.21
2023-02-09T08:19:15.434Z,3.94
2023-02-09T08:21:45.443Z,3.94
2023-02-09T08:24:13.554Z,4.30
2023-02-09T08:26:41.226Z,4.00
2023-02-09T08:29:09.576Z,3.78
2023-02-09T08:31:37.390Z,4.09
2023-02-09T08:34:05.118Z,4.03
2023-02-09T08:36:34.344Z,3.98
2023-02-09T08:39:03.193Z,3.65
2023-02-09T08:41:30.713Z,4.48
2023-02-09T08:43:58.237Z,4.80
2023-02-09T08:46:26.346Z,5.11
2023-02-09T08:48:54.086Z,4.91
2023-02-09T08:51:21.788Z,4.92
2023-02-09T08:53:52.802Z,5.08
2023-02-09T08:56:21.888Z,4.04
2023-02-09T08:58:50.158Z,4.70
2023-02-09T09:01:17.678Z,5.30
2023-02-09T09:03:45.477Z,4.37
2023-02-09T09:06:13.587Z,4.53
2023-02-09T09:08:41.388Z,5.44
2023-02-09T09:11:12.938Z,6.36
2023-02-09T09:13:41.344Z,6.13
2023-02-09T09:16:14.800Z,5.62
2023-02-09T09:18:44.350Z,5.80
2023-02-09T09:21:13.258Z,6.43
2023-02-09T09:23:40.657Z,6.12
2023-02-09T09:26:09.291Z,7.20
2023-02-09T09:28:36.828Z,5.29
2023-02-09T09:31:13.040Z,5.76
2023-02-09T09:33:41.808Z,6.74
2023-02-09T09:36:10.796Z,6.23
2023-02-09T09:38:39.406Z,6.54
2023-02-09T09:41:21.466Z,5.91
2023-02-09T09:43:49.600Z,6.37
2023-02-09T09:46:20.440Z,6.16
2023-02-09T09:48:50.711Z,6.37
2023-02-09T09:51:42.490Z,5.79
2023-02-09T09:54:22.139Z,6.48
2023-02-09T09:56:51.205Z,7.01
2023-02-09T09:59:35.111Z,7.11
2023-02-09T10:02:18.273Z,7.70
2023-02-09T10:04:47.408Z,7.22
2023-02-09T10:07:20.090Z,5.85
2023-02-09T10:09:52.910Z,6.52
2023-02-09T10:12:34.308Z,4.98
2023-02-09T10:15:35.041Z,6.17
2023-02-09T10:18:02.915Z,7.25
2023-02-09T10:21:07.197Z,7.61
2023-02-09T10:23:42.303Z,7.76
2023-02-09T10:26:09.928Z,8.12
2023-02-09T10:28:46.563Z,7.25
2023-02-09T10:31:32.478Z,7.63
2023-02-09T10:34:10.711Z,8.35
2023-02-09T10:36:46.186Z,8.08
2023-02-09T10:39:21.301Z,7.71
2023-02-09T10:41:54.788Z,8.25
2023-02-09T10:44:34.590Z,8.14
2023-02-09T10:47:27.208Z,9.07
2023-02-09T10:50:01.013Z,7.49
2023-02-09T10:52:37.135Z,8.66
2023-02-09T10:55:20.995Z,8.04
2023-02-09T10:57:48.916Z,8.39
2023-02-09T11:00:16.212Z,8.26
2023-02-09T11:02:51.801Z,8.75
2023-02-09T11:05:22.327Z,6.12
2023-02-09T11:08:13.961Z,6.23
2023-02-09T11:10:43.430Z,7.53
2023-02-09T11:13:18.170Z,7.33
2023-02-09T11:15:58.641Z,8.90
2023-02-09T11:18:29.409Z,9.61
2023-02-09T11:21:30.691Z,9.58
2023-02-09T11:24:06.941Z,9.39
2023-02-09T11:26:51.503Z,9.94
2023-02-09T11:29:27.532Z,11.00
2023-02-09T11:32:24.505Z,8.28
2023-02-09T11:35:11.096Z,9.21
2023-02-09T11:37:50.924Z,7.09
2023-02-09T11:40:21.222Z,6.16
2023-02-09T11:42:51.506Z,6.69
2023-02-09T11:45:24.875Z,6.76
2023-02-09T11:47:55.284Z,6.89
2023-02-09T11:50:42.297Z,7.46
2023-02-09T11:53:28.879Z,8.16
2023-02-09T11:55:56.997Z,8.85
2023-02-09T11:58:24.416Z,9.34
2023-02-09T12:01:27.174Z,8.97
2023-02-09T12:04:21.433Z,11.16
2023-02-09T12:06:54.964Z,10.04
2023-02-09T12:09:57.013Z,9.48
2023-02-09T12:12:44.729Z,8.85
2023-02-09T12:15:23.090Z,10.46
2023-02-09T12:18:04.330Z,11.02
2023-02-09T12:20:38.066Z,11.33
2023-02-09T12:23:11.327Z,11.01
2023-02-09T12:25:41.706Z,11.52
2023-02-09T12:28:09.354Z,11.80
2023-02-09T12:30:40.074Z,11.55
2023-02-09T12:33:20.006Z,11.81
2023-02-09T12:36:01.198Z,9.79
2023-02-09T12:38:41.001Z,11.08
2023-02-09T12:41:09.775Z,9.18
2023-02-09T12:43:37.536Z,10.91
2023-02-09T12:46:13.908Z,11.33
2023-02-09T12:48:54.009Z,11.71
2023-02-09T12:51:42.673Z,11.13
2023-02-09T12:54:29.701Z,9.59
2023-02-09T12:56:57.312Z,10.75
2023-02-09T12:59:25.029Z,11.74
2023-02-09T13:02:07.751Z,12.24
2023-02-09T13:04:36.168Z,12.20
2023-02-09T13:07:03.321Z,11.14
2023-02-09T13:09:31.877Z,11.72
2023-02-09T13:12:19.534Z,12.20
2023-02-09T13:14:47.546Z,11.28
2023-02-09T13:17:27.186Z,11.56
2023-02-09T13:20:04.276Z,11.61
2023-02-09T13:22:45.589Z,10.47
2023-02-09T13:25:15.756Z,8.94
2023-02-09T13:27:47.170Z,9.65
2023-02-09T13:30:34.715Z,10.99
2023-02-09T13:33:08.669Z,8.30
2023-02-09T13:35:41.862Z,6.91
2023-02-09T13:38:15.520Z,9.13
2023-02-09T13:40:47.141Z,7.98
2023-02-09T13:43:34.719Z,9.62
2023-02-09T13:46:02.189Z,10.67
2023-02-09T13:48:37.566Z,10.88
2023-02-09T13:51:13.469Z,11.45
2023-02-09T13:53:41.094Z,11.53
2023-02-09T13:56:11.435Z,11.30
2023-02-09T13:58:38.717Z,12.12
2023-02-09T14:01:11.748Z,11.97
2023-02-09T14:03:57.354Z,10.57
2023-02-09T14:06:44.627Z,10.02
2023-02-09T14:09:14.027Z,10.69
2023-02-09T14:11:45.599Z,11.63
2023-02-09T14:14:15.314Z,11.20
2023-02-09T14:16:53.006Z,11.58
2023-02-09T14:19:26.079Z,11.24
2023-02-09T14:21:53.551Z,10.90
2023-02-09T14:24:27.354Z,11.17
2023-02-09T14:27:05.512Z,11.53
2023-02-09T14:29:34.092Z,11.68
2023-02-09T14:32:31.900Z,10.46
2023-02-09T14:35:02.593Z,10.46
2023-02-09T14:37:30.309Z,11.01
2023-02-09T14:40:01.054Z,11.27
2023-02-09T14:42:28.759Z,11.16
2023-02-09T14:44:57.458Z,11.31
2023-02-09T14:47:28.846Z,8.97
2023-02-09T14:49:56.925Z,9.63
2023-02-09T14:52:28.731Z,10.36
2023-02-09T14:54:56.711Z,10.59
2023-02-09T14:57:25.256Z,9.45
2023-02-09T14:59:52.438Z,8.57
2023-02-09T15:02:21.199Z,6.89
2023-02-09T15:04:48.461Z,5.71
2023-02-09T15:07:17.696Z,6.89
2023-02-09T15:09:45.235Z,5.71
2023-02-09T15:12:21.080Z,6.92
2023-02-09T15:14:48.634Z,7.37
2023-02-09T15:17:20.287Z,6.01
2023-02-09T15:19:47.590Z,5.12
2023-02-09T15:22:16.203Z,6.31
2023-02-09T15:24:44.091Z,8.27
2023-02-09T15:27:15.606Z,7.38
2023-02-09T15:29:43.400Z,7.81
2023-02-09T15:32:15.110Z,8.43
2023-02-09T15:34:42.723Z,8.78
2023-02-09T15:37:18.562Z,8.91
2023-02-09T15:39:46.120Z,9.40
2023-02-09T15:42:35.852Z,9.45
2023-02-09T15:45:31.915Z,9.43
2023-02-09T15:47:59.601Z,9.54
2023-02-09T15:50:28.525Z,9.03
2023-02-09T15:52:57.870Z,9.13
2023-02-09T15:55:25.313Z,8.34
2023-02-09T15:57:53.793Z,8.49
2023-02-09T16:00:22.129Z,7.87
2023-02-09T16:02:50.012Z,7.72
2023-02-09T16:05:17.743Z,8.87
2023-02-09T16:07:45.124Z,7.00
2023-02-09T16:10:13.721Z,8.20
2023-02-09T16:12:41.084Z,7.65
2023-02-09T16:15:14.311Z,7.99
2023-02-09T16:17:42.179Z,7.18
2023-02-09T16:20:09.599Z,5.90
2023-02-09T16:22:42.813Z,4.80
2023-02-09T16:25:23.880Z,4.82
2023-02-09T16:27:53.211Z,4.26
2023-02-09T16:30:22.696Z,3.24
2023-02-09T16:32:50.469Z,2.68
2023-02-09T16:35:18.158Z,2.36
2023-02-09T16:37:47.661Z,2.29
2023-02-09T16:40:21.155Z,1.88
2023-02-09T16:42:48.769Z,1.91
2023-02-09T16:45:17.303Z,2.32
2023-02-09T16:47:50.132Z,2.30
2023-02-09T16:50:35.611Z,2.14
2023-02-09T16:53:04.683Z,2.10
2023-02-09T16:55:35.944Z,1.99
2023-02-09T16:58:04.522Z,1.65
2023-02-09T17:00:33.283Z,2.41
2023-02-09T17:03:20.824Z,3.04
2023-02-09T17:05:53.204Z,3.01
2023-02-09T17:08:22.498Z,2.59
2023-02-09T17:10:52.211Z,2.50
2023-02-09T17:13:22.651Z,2.50
2023-02-09T17:15:52.512Z,3.22
2023-02-09T17:18:22.721Z,2.67
2023-02-09T17:20:58.959Z,2.72
2023-02-09T17:23:26.805Z,2.68
2023-02-09T17:25:56.088Z,3.21
2023-02-09T17:28:25.442Z,3.85
2023-02-09T17:30:54.675Z,5.10
2023-02-09T17:33:24.332Z,5.64
2023-02-09T17:36:23.869Z,6.20
2023-02-09T17:38:41.657Z,5.71
2023-02-09T17:41:37.378Z,3.59
2023-02-09T17:44:22.432Z,4.22
2023-02-09T17:46:54.740Z,5.47
2023-02-09T17:49:23.378Z,5.61
2023-02-09T17:51:52.414Z,4.92
2023-02-09T17:54:22.310Z,3.76
2023-02-09T17:56:51.357Z,3.11
2023-02-09T17:59:20.453Z,2.86
2023-02-09T18:01:55.543Z,3.10
2023-02-09T18:04:29.268Z,3.27
2023-02-09T18:06:58.731Z,3.15
2023-02-09T18:09:26.743Z,2.55
2023-02-09T18:11:56.266Z,2.80
2023-02-09T18:14:26.728Z,2.61
2023-02-09T18:16:55.933Z,2.98
2023-02-09T18:19:24.829Z,2.88
2023-02-09T18:21:58.284Z,2.89
2023-02-09T18:24:27.712Z,2.58
2023-02-09T18:26:55.778Z,2.49
2023-02-09T18:29:27.418Z,3.06
2023-02-09T18:31:56.487Z,2.78
2023-02-09T18:34:25.972Z,2.55
2023-02-09T18:36:54.283Z,0.96
2023-02-09T18:39:23.261Z,0.58
2023-02-09T18:41:58.918Z,0.87
2023-02-09T18:44:32.437Z,0.96
2023-02-09T18:47:02.594Z,1.25
2023-02-09T18:49:31.351Z,0.92
2023-02-09T18:51:59.629Z,0.91
2023-02-09T18:54:29.366Z,0.56
2023-02-09T18:56:57.832Z,-0.39
2023-02-09T18:59:30.165Z,-0.33
2023-02-09T19:02:02.332Z,-0.13
2023-02-09T19:04:30.291Z,-0.04
2023-02-09T19:06:58.563Z,0.04
2023-02-09T19:09:26.876Z,-0.11
2023-02-09T19:11:55.492Z,-0.21
2023-02-09T19:14:41.071Z,-0.10
2023-02-09T19:17:14.714Z,1.24
2023-02-09T19:19:43.088Z,1.26
2023-02-09T19:22:14.081Z,1.32
2023-02-09T19:24:43.561Z,0.85
2023-02-09T19:27:12.468Z,1.09
2023-02-09T19:29:42.021Z,1.01
2023-02-09T19:32:10.447Z,0.45
2023-02-09T19:34:40.412Z,-0.24
2023-02-09T19:37:08.989Z,-0.84
2023-02-09T19:39:39.315Z,-0.43
2023-02-09T19:42:08.876Z,-0.81
2023-02-09T19:44:38.507Z,0.35
2023-02-09T19:47:07.071Z,-0.34
2023-02-09T19:49:35.615Z,0.11
2023-02-09T19:52:04.825Z,0.12
2023-02-09T19:54:33.237Z,0.69
2023-02-09T19:57:04.798Z,0.91
2023-02-09T19:59:34.953Z,0.63
2023-02-09T20:02:03.319Z,0.61
2023-02-09T20:04:33.779Z,0.19
2023-02-09T20:07:04.125Z,-0.02
2023-02-09T20:09:32.700Z,-0.20
2023-02-09T20:12:00.648Z,-0.24
2023-02-09T20:14:31.489Z,-0.21
2023-02-09T20:17:01.820Z,-0.48
2023-02-09T20:19:31.431Z,-1.08
2023-02-09T20:22:01.068Z,-1.32
2023-02-09T20:24:32.357Z,-0.69
2023-02-09T20:27:01.052Z,-0.65
2023-02-09T20:29:35.970Z,0.45
2023-02-09T20:32:05.628Z,1.15
2023-02-09T20:34:35.146Z,-0.14
2023-02-09T20:37:03.556Z,-0.20
2023-02-09T20:39:31.720Z,-0.54
2023-02-09T20:42:18.985Z,-0.02
2023-02-09T20:45:07.874Z,-0.38
2023-02-09T20:47:36.693Z,-0.43
2023-02-09T20:50:08.076Z,-0.48
2023-02-09T20:52:39.832Z,-0.69
2023-02-09T20:55:08.700Z,-0.25
2023-02-09T20:57:37.843Z,1.62
2023-02-09T21:00:09.940Z,1.60
2023-02-09T21:02:38.749Z,-0.08
2023-02-09T21:05:09.216Z,0.24
2023-02-09T21:07:37.790Z,2.21
2023-02-09T21:10:08.627Z,2.39
2023-02-09T21:12:36.533Z,-0.40
2023-02-09T21:15:04.433Z,-1.41
2023-02-09T21:17:35.977Z,0.77
2023-02-09T21:20:05.986Z,-1.57
2023-02-09T21:22:34.337Z,-1.36
2023-02-09T21:25:02.558Z,-2.04
2023-02-09T21:27:29.890Z,-2.61
2023-02-09T21:29:59.330Z,-3.27
2023-02-09T21:32:26.558Z,-3.43
2023-02-09T21:34:54.960Z,-3.33
2023-02-09T21:37:23.251Z,-3.31
2023-02-09T21:39:51.221Z,-3.33
2023-02-09T21:42:28.712Z,-2.75
2023-02-09T21:44:58.560Z,-2.37
2023-02-09T21:47:30.441Z,-1.49
2023-02-09T21:49:58.537Z,-0.70
2023-02-09T21:52:26.310Z,-1.21
2023-02-09T21:54:54.023Z,-0.76
2023-02-09T21:57:21.566Z,-1.29
2023-02-09T21:59:48.758Z,-1.40
2023-02-09T22:02:17.034Z,-1.85
2023-02-09T22:04:44.956Z,-1.30
2023-02-09T22:07:12.604Z,-0.95
2023-02-09T22:09:39.951Z,-0.37
2023-02-09T22:12:07.615Z,-0.72
2023-02-09T22:14:34.778Z,-1.63
2023-02-09T22:17:01.999Z,-2.21
2023-02-09T22:19:29.544Z,-1.16
2023-02-09T22:21:58.076Z,0.74
2023-02-09T22:24:25.294Z,-0.61
2023-02-09T22:26:52.745Z,-1.80
2023-02-09T22:29:19.922Z,-1.01
2023-02-09T22:31:47.145Z,-1.40
2023-02-09T22:34:14.628Z,-1.51
2023-02-09T22:36:41.785Z,-1.48
2023-02-09T22:39:09.049Z,-2.44
2023-02-09T22:41:36.797Z,-2.04
2023-02-09T22:44:05.406Z,-1.91
2023-02-09T22:46:34.172Z,-2.55
2023-02-09T22:49:08.834Z,-2.28
2023-02-09T22:51:36.199Z,-2.52
2023-02-09T22:54:03.980Z,-2.65
2023-02-09T22:56:31.313Z,-1.73
2023-02-09T22:58:59.354Z,-1.86
2023-02-09T23:01:27.413Z,-1.73
2023-02-09T23:03:54.635Z,-1.91
2023-02-09T23:06:24.015Z,-1.83
2023-02-09T23:08:52.081Z,-2.20
2023-02-09T23:11:19.226Z,-1.90
2023-02-09T23:13:47.120Z,-1.69
2023-02-09T23:16:18.699Z,-1.67
2023-02-09T23:18:47.287Z,-1.82
2023-02-09T23:21:14.824Z,-1.64
2023-02-09T23:23:41.971Z,-2.64
2023-02-09T23:26:09.124Z,-1.99
2023-02-09T23:28:36.545Z,-1.35
2023-02-09T23:31:07.135Z,-1.70
2023-02-09T23:33:34.852Z,-2.22
2023-02-09T23:36:03.578Z,-1.73
2023-02-09T23:38:30.795Z,-1.97
2023-02-09T23:40:57.944Z,-1.66
2023-02-09T23:43:26.122Z,-2.19
2023-02-09T23:45:53.613Z,-2.24
2023-02-09T23:48:20.947Z,-1.65
2023-02-09T23:50:48.413Z,-2.12
2023-02-09T23:53:15.564Z,-3.46
2023-02-09T23:55:50.034Z,-3.24
2023-02-09T23:58:17.477Z,-2.28
